CST,Max TemperatureF,Mean TemperatureF,Min TemperatureF,Max Dew PointF,MeanDew PointF,Min DewpointF,Max Humidity, Mean Humidity, Min Humidity, Max Sea Level PressureIn, Mean Sea Level PressureIn, Min Sea Level PressureIn, Max VisibilityMiles, Mean VisibilityMiles, Min VisibilityMiles, Max Wind SpeedMPH, Mean Wind SpeedMPH, Max Gust SpeedMPH,PrecipitationIn, CloudCover, Events, WindDirDegrees
2012-11-1,60,48,35,32,27,16,70,49,27,29.98,29.92,29.85,10,10,7,15,3,22,0.00,2,,316
2012-11-2,51,40,28,28,26,21,75,57,30,30.12,30.07,29.98,10,7,1,10,3,,0.00,0,,70
2012-11-3,51,42,32,32,29,25,81,59,41,30.22,30.17,30.09,10,8,3,10,6,,0.00,5,,81
2012-11-4,51,40,28,36,32,23,86,72,47,30.26,30.21,30.16,10,9,5,6,1,,0.00,5,Rain,148
2012-11-5,51,44,37,36,32,27,81,67,41,30.18,30.14,30.09,10,8,4,13,3,16,0.04,7,Rain,100
2012-11-6,46,44,41,43,36,30,87,76,61,30.11,29.94,29.85,10,8,2,13,6,16,0.27,8,Rain,230
2012-11-7,46,42,39,37,35,32,87,72,57,30.17,30.08,29.91,10,10,10,12,6,,0.01,8,Rain,353
2012-11-8,55,44,32,37,35,27,81,69,47,30.17,30.10,30.01,10,9,2,14,5,17,0.00,1,,155
2012-11-9,60,48,37,48,42,32,87,69,52,30.02,29.94,29.88,10,9,5,9,3,,0.00,3,,110
2012-11-10,73,64,55,54,50,39,77,60,35,29.88,29.80,29.73,10,10,10,26,10,33,0.00,1,Rain,165
2012-11-11,66,49,30,55,42,19,88,72,46,30.08,29.83,29.68,10,9,3,24,16,32,0.94,7,Rain,237
2012-11-12,39,32,24,21,18,16,74,60,42,30.39,30.22,30.08,10,10,10,24,14,34,0.00,2,,264
2012-11-13,46,34,21,27,20,16,80,60,29,30.50,30.44,30.39,10,10,10,7,3,,0.00,0,,187
2012-11-14,55,45,33,32,27,25,81,57,31,30.44,30.38,30.32,10,10,10,12,5,10,0.00,1,,156
2012-11-15,57,42,28,30,28,25,86,65,29,30.36,30.32,30.27,10,10,7,12,2,,0.00,0,,188
2012-11-16,57,44,28,36,31,25,87,70,38,30.45,30.42,30.37,10,8,3,7,1,,0.00,0,,334
2012-11-17,59,42,26,34,27,21,93,64,29,30.48,30.42,30.36,10,6,0,10,2,17,0.00,1,Fog,152
2012-11-18,62,44,26,34,28,21,86,57,22,30.38,30.30,30.24,10,8,2,12,3,17,0.00,0,,149
2012-11-19,53,44,35,46,39,32,87,74,58,30.23,30.14,30.07,10,8,0,13,4,17,0.00,5,Fog-Rain,161
2012-11-20,51,42,33,46,40,30,93,87,81,30.21,30.14,30.06,4,1,0,9,1,,0.00,8,Fog,316
2012-11-21,64,50,35,50,40,32,93,81,49,30.22,30.14,30.03,10,4,0,13,4,,0.00,4,Fog-Rain,167
2012-11-22,66,52,39,50,41,30,87,66,43,30.06,29.90,29.75,10,10,7,34,9,48,0.05,2,Rain,208
2012-11-23,41,32,21,32,16,10,75,55,41,30.33,30.23,30.05,10,10,10,34,19,43,0.00,1,,297
2012-11-24,33,25,17,21,16,10,80,65,56,30.32,30.18,29.91,10,10,10,13,8,18,0.00,1,,227
2012-11-25,44,37,30,25,23,21,70,57,42,30.12,29.96,29.85,10,10,10,12,5,16,0.00,2,,307
2012-11-26,33,25,15,25,15,7,75,57,38,30.43,30.30,30.13,10,10,10,17,7,22,0.00,3,,338
2012-11-27,37,24,10,16,10,5,79,54,28,30.44,30.35,30.26,10,10,10,13,2,,0.00,1,,203
2012-11-28,48,36,23,23,18,12,80,54,27,30.41,30.32,30.23,10,10,10,8,3,,0.00,0,,188
2012-11-29,55,38,21,32,26,18,86,68,38,30.23,30.10,30.00,10,9,4,14,2,,0.00,0,,172
2012-11-30,55,40,26,36,30,21,93,73,47,30.10,30.05,30.00,10,7,0,9,1,,0.00,1,Fog,48